Time;durP1;ratioP1;P1;durP2;ratioP2;P2;SDS_P1;SDS_P2;PMS_P1;PMS_P2;Temp;Humidity;BMP_temperature;BMP_pressure;BME280_temperature;BME280_humidity;BME280_pressure;Samples;Min_cycle;Max_cycle;Signal;HPM_P1;HPM_P2
2024/01/07 00:01:32;;;;;;;6.10;5.50;;;;;;;14.79;100.00;149754.44;5094749;28;20655;-62
2024/01/07 00:03:59;;;;;;;5.87;5.47;;;;;;;14.85;100.00;149770.91;5094773;28;20631;-63
2024/01/07 00:06:26;;;;;;;6.17;5.57;;;;;;;14.87;100.00;149776.00;5095031;28;20233;-62
2024/01/07 00:08:53;;;;;;;6.27;5.70;;;;;;;14.90;100.00;149783.59;5094549;28;20184;-63
2024/01/07 00:11:20;;;;;;;6.47;6.03;;;;;;;14.93;100.00;149789.97;5094536;28;20241;-62
2024/01/07 00:13:48;;;;;;;5.60;5.17;;;;;;;14.87;100.00;149776.00;5094641;28;20597;-63
2024/01/07 00:16:15;;;;;;;8.93;5.40;;;;;;;14.90;100.00;149783.59;5094409;28;20688;-63
2024/01/07 00:18:42;;;;;;;8.27;5.47;;;;;;;14.93;100.00;149791.22;5095004;28;20608;-59
2024/01/07 00:21:09;;;;;;;6.33;5.07;;;;;;;14.78;100.00;149753.16;5093833;28;20230;-59
2024/01/07 00:23:36;;;;;;;5.50;5.00;;;;;;;14.83;100.00;149764.56;5093892;28;20195;-61
2024/01/07 00:26:04;;;;;;;7.73;5.20;;;;;;;14.91;100.00;149784.88;5094527;28;20574;-61
2024/01/07 00:28:31;;;;;;;4.60;4.30;;;;;;;14.89;100.00;149781.09;5093784;28;20192;-60
2024/01/07 00:30:59;;;;;;;5.70;4.00;;;;;;;14.92;100.00;149788.69;5093677;28;20203;-60
2024/01/07 00:33:26;;;;;;;5.60;4.10;;;;;;;15.19;100.00;149854.66;5093598;28;20188;-59
2024/01/07 00:35:53;;;;;;;3.80;3.60;;;;;;;15.17;100.00;149849.56;5093562;28;20269;-57
2024/01/07 00:38:20;;;;;;;4.83;3.87;;;;;;;15.42;100.00;149913.00;5093602;28;20188;-58
2024/01/07 00:40:47;;;;;;;4.20;3.80;;;;;;;15.51;100.00;149935.88;5093477;28;20192;-59
2024/01/07 00:43:14;;;;;;;4.70;4.03;;;;;;;15.56;100.00;149948.59;5093851;28;20638;-59
2024/01/07 00:45:41;;;;;;;6.17;4.43;;;;;;;15.64;100.00;149968.88;5093784;28;20233;-59
2024/01/07 00:48:10;;;;;;;4.17;3.90;;;;;;;15.68;100.00;149977.75;5093337;28;20188;-61
2024/01/07 00:50:37;;;;;;;4.10;3.67;;;;;;;15.69;100.00;149981.59;5093727;28;20692;-60
2024/01/07 00:53:04;;;;;;;4.97;3.80;;;;;;;15.69;100.00;149980.31;5093375;28;20212;-59
2024/01/07 00:55:31;;;;;;;6.13;4.13;;;;;;;15.58;100.00;149953.63;5093262;28;20180;-60
2024/01/07 00:57:58;;;;;;;3.40;3.20;;;;;;;15.67;100.00;149976.50;5093283;28;20203;-59
2024/01/07 01:00:26;;;;;;;3.63;3.33;;;;;;;15.79;100.00;150006.94;5093658;28;20597;-59
2024/01/07 01:02:53;;;;;;;4.17;3.53;;;;;;;15.77;100.00;150000.63;5093115;28;20184;-59
2024/01/07 01:05:21;;;;;;;4.63;3.43;;;;;;;15.71;100.00;149986.63;5093296;28;20639;-59
2024/01/07 01:07:49;;;;;;;3.67;3.37;;;;;;;15.90;100.00;150033.63;5093031;28;20184;-60
2024/01/07 01:10:16;;;;;;;3.63;3.33;;;;;;;15.92;100.00;150039.94;5092956;28;20245;-60
2024/01/07 01:12:43;;;;;;;5.80;3.73;;;;;;;15.89;100.00;150032.34;5092920;28;20275;-59
2024/01/07 01:15:11;;;;;;;3.90;3.60;;;;;;;15.89;100.00;150032.34;5092759;28;20184;-60
2024/01/07 01:17:38;;;;;;;3.40;3.10;;;;;;;15.90;100.00;150033.63;5093065;28;20239;-59
2024/01/07 01:20:06;;;;;;;3.87;3.50;;;;;;;15.98;100.00;150055.19;5093264;28;20184;-59
2024/01/07 01:22:34;;;;;;;3.93;3.73;;;;;;;16.02;100.00;150064.06;5092787;28;20184;-60
2024/01/07 01:25:03;;;;;;;4.10;3.80;;;;;;;16.03;100.00;150065.34;5093826;28;20180;-60
2024/01/07 01:27:30;;;;;;;3.60;3.30;;;;;;;15.93;100.00;150042.50;5092964;28;20263;-59
2024/01/07 01:29:57;;;;;;;4.07;3.77;;;;;;;15.83;100.00;150017.09;5092658;28;20551;-59
2024/01/07 01:32:24;;;;;;;4.33;3.93;;;;;;;15.84;100.00;150019.63;5092579;28;20188;-59
2024/01/07 01:34:51;;;;;;;7.17;4.30;;;;;;;15.90;100.00;150033.63;5092562;28;20188;-60
2024/01/07 01:37:18;;;;;;;4.93;4.20;;;;;;;15.83;100.00;150015.81;5092402;28;20212;-60
2024/01/07 01:39:47;;;;;;;4.90;4.50;;;;;;;15.90;100.00;150033.63;5092433;28;20214;-60
2024/01/07 01:42:14;;;;;;;4.23;4.03;;;;;;;15.86;100.00;150024.75;5092840;28;20198;-59
2024/01/07 01:44:41;;;;;;;4.47;4.07;;;;;;;15.84;100.00;150018.38;5092651;28;20558;-59
2024/01/07 01:47:09;;;;;;;6.63;4.13;;;;;;;15.85;100.00;150020.91;5092248;28;20183;-60
2024/01/07 01:49:37;;;;;;;8.03;3.80;;;;;;;15.67;100.00;149976.50;5092473;28;20256;-59
2024/01/07 01:52:06;;;;;;;4.30;4.00;;;;;;;15.66;100.00;149973.94;5092541;28;20184;-59
2024/01/07 01:54:33;;;;;;;3.73;3.43;;;;;;;15.74;100.00;149994.25;5092211;28;20288;-59
2024/01/07 01:57:01;;;;;;;3.93;3.70;;;;;;;15.77;100.00;150000.63;5092399;28;20199;-60
2024/01/07 01:59:30;;;;;;;5.70;3.90;;;;;;;15.90;100.00;150033.63;5092314;28;20188;-59
2024/01/07 02:01:57;;;;;;;4.43;3.63;;;;;;;15.90;100.00;150033.63;5092608;28;20192;-59
2024/01/07 02:04:24;;;;;;;3.70;3.37;;;;;;;15.89;100.00;150032.34;5092392;28;20248;-61
2024/01/07 02:06:51;;;;;;;9.07;4.20;;;;;;;15.87;100.00;150026.03;5092829;28;20614;-59
2024/01/07 02:09:18;;;;;;;4.20;3.90;;;;;;;15.88;100.00;150029.78;5092111;28;20711;-59
2024/01/07 02:12:00;;;;;;;7.37;3.70;;;;;;;15.66;100.00;149973.94;5092412;28;20284;-59
2024/01/07 02:14:29;;;;;;;4.10;3.80;;;;;;;15.86;100.00;150024.75;5092177;28;20242;-59
2024/01/07 02:16:56;;;;;;;3.73;3.53;;;;;;;15.90;100.00;150034.88;5091803;28;20253;-59
2024/01/07 02:19:23;;;;;;;3.80;3.50;;;;;;;15.97;100.00;150051.38;5091981;28;20183;-59
2024/01/07 02:21:52;;;;;;;3.90;3.60;;;;;;;15.86;100.00;150023.47;5091379;28;20184;-60
2024/01/07 02:24:20;;;;;;;4.20;3.60;;;;;;;15.76;100.00;149999.34;5091862;28;20238;-60
2024/01/07 02:26:47;;;;;;;4.33;4.13;;;;;;;15.69;100.00;149980.31;5092218;28;20195;-59
2024/01/07 02:29:15;;;;;;;4.60;4.20;;;;;;;15.69;100.00;149981.59;5091831;28;20188;-60
2024/01/07 02:31:42;;;;;;;5.13;4.63;;;;;;;15.68;100.00;149979.03;5092151;28;20184;-60
2024/01/07 02:34:10;;;;;;;9.07;5.27;;;;;;;15.49;100.00;149930.75;5091780;28;20184;-60
2024/01/07 02:36:37;;;;;;;4.67;4.47;;;;;;;15.49;100.00;149932.00;5091664;28;20208;-59
2024/01/07 02:39:04;;;;;;;6.00;5.10;;;;;;;15.40;100.00;149909.16;5091842;28;20184;-59
2024/01/07 02:41:33;;;;;;;6.00;5.50;;;;;;;15.38;100.00;149904.13;5091624;28;20216;-59
2024/01/07 02:44:00;;;;;;;8.67;6.50;;;;;;;15.33;100.00;149891.44;5091806;28;20237;-59
2024/01/07 02:46:27;;;;;;;6.10;5.60;;;;;;;15.34;100.00;149892.69;5091916;28;20253;-60
2024/01/07 02:48:54;;;;;;;6.23;5.77;;;;;;;15.20;100.00;149857.16;5091753;28;20177;-60
2024/01/07 02:51:21;;;;;;;5.30;4.87;;;;;;;15.20;100.00;149858.44;5092068;28;20188;-59
2024/01/07 02:53:48;;;;;;;10.07;5.43;;;;;;;15.09;100.00;149830.53;5091649;28;20235;-61
2024/01/07 02:56:15;;;;;;;4.87;4.47;;;;;;;15.20;100.00;149857.16;5091484;28;20189;-58
2024/01/07 02:58:43;;;;;;;5.30;4.80;;;;;;;14.98;100.00;149803.88;5091817;28;20253;-59
2024/01/07 03:01:11;;;;;;;4.87;4.47;;;;;;;15.34;100.00;149892.69;5091819;28;20184;-60
2024/01/07 03:03:38;;;;;;;4.97;4.67;;;;;;;15.32;100.00;149888.88;5091478;28;20565;-59
2024/01/07 03:06:05;;;;;;;4.67;4.27;;;;;;;15.31;100.00;149885.09;5091802;28;20619;-59
2024/01/07 03:08:32;;;;;;;5.30;4.70;;;;;;;15.26;100.00;149872.41;5091742;28;20192;-60
2024/01/07 03:10:59;;;;;;;4.93;4.50;;;;;;;15.23;100.00;149866.06;5091569;28;20188;-59
2024/01/07 03:13:28;;;;;;;4.50;4.17;;;;;;;15.11;100.00;149834.38;5091922;28;20634;-60
2024/01/07 03:15:57;;;;;;;5.47;4.60;;;;;;;15.00;100.00;149808.97;5091704;28;20184;-60
2024/01/07 03:18:24;;;;;;;5.40;4.37;;;;;;;14.89;100.00;149781.09;5091658;28;20544;-59
2024/01/07 03:20:51;;;;;;;4.40;4.00;;;;;;;14.99;100.00;149806.44;5091353;28;20184;-58
2024/01/07 03:23:18;;;;;;;4.20;3.90;;;;;;;15.09;100.00;149830.53;5091262;28;20184;-60
2024/01/07 03:25:45;;;;;;;4.47;4.03;;;;;;;15.16;100.00;149847.00;5091379;28;20199;-61
2024/01/07 03:28:12;;;;;;;7.63;4.30;;;;;;;15.14;100.00;149841.97;5091495;28;20238;-59
2024/01/07 03:30:39;;;;;;;5.50;4.70;;;;;;;15.16;100.00;149847.00;5092253;28;20180;-59
2024/01/07 03:33:08;;;;;;;5.80;5.27;;;;;;;14.76;100.00;149748.13;5091850;28;20626;-60
2024/01/07 03:35:35;;;;;;;5.30;4.80;;;;;;;14.82;100.00;149763.31;5095662;28;20184;-59
2024/01/07 03:38:02;;;;;;;4.63;4.27;;;;;;;14.74;100.00;149741.75;5095098;28;20285;-59
2024/01/07 03:40:29;;;;;;;4.60;4.30;;;;;;;14.68;100.00;149726.56;5094944;28;20188;-60
2024/01/07 03:42:56;;;;;;;5.73;4.60;;;;;;;14.73;100.00;149740.47;5094705;28;20238;-59
2024/01/07 03:45:23;;;;;;;5.67;4.67;;;;;;;14.76;100.00;149748.13;5094623;28;20184;-60
2024/01/07 03:47:50;;;;;;;7.73;5.20;;;;;;;14.77;100.00;149750.63;5095370;28;20569;-59
2024/01/07 03:50:18;;;;;;;4.53;4.20;;;;;;;14.80;100.00;149758.25;5095237;28;20202;-60
2024/01/07 03:52:45;;;;;;;8.33;4.43;;;;;;;14.84;100.00;149768.41;5095828;28;20688;-60
2024/01/07 03:55:13;;;;;;;5.70;5.10;;;;;;;14.83;100.00;149764.56;5094312;28;20235;-59
2024/01/07 03:57:40;;;;;;;7.27;5.37;;;;;;;14.87;100.00;149774.72;5094683;28;20717;-61
2024/01/07 04:00:09;;;;;;;6.17;5.47;;;;;;;14.87;100.00;149776.00;5094317;28;20242;-59
2024/01/07 04:02:36;;;;;;;5.07;4.73;;;;;;;14.89;100.00;149779.81;5094373;28;20188;-60
2024/01/07 04:05:03;;;;;;;5.27;4.80;;;;;;;14.92;100.00;149788.69;5094271;28;20188;-60
2024/01/07 04:07:32;;;;;;;5.63;5.20;;;;;;;14.87;100.00;149776.00;5094301;28;20238;-59
2024/01/07 04:09:59;;;;;;;6.83;5.10;;;;;;;14.81;100.00;149759.53;5094420;28;20192;-59
2024/01/07 04:12:26;;;;;;;5.17;4.60;;;;;;;14.81;100.00;149759.53;5094452;28;20604;-60
2024/01/07 04:14:53;;;;;;;4.87;4.50;;;;;;;14.74;100.00;149741.75;5094085;28;20237;-60
2024/01/07 04:17:20;;;;;;;7.10;5.43;;;;;;;14.75;100.00;149745.56;5094015;28;20257;-59
2024/01/07 04:19:47;;;;;;;6.87;4.80;;;;;;;14.55;100.00;149696.06;5094378;28;20634;-59
2024/01/07 04:22:14;;;;;;;5.30;5.00;;;;;;;14.72;100.00;149736.69;5094170;28;20241;-59
2024/01/07 04:24:43;;;;;;;7.57;5.20;;;;;;;14.66;100.00;149722.72;5094223;28;20634;-59
2024/01/07 04:27:10;;;;;;;5.63;5.27;;;;;;;14.64;100.00;149717.63;5094347;28;20222;-59
2024/01/07 04:29:37;;;;;;;6.63;5.40;;;;;;;14.68;100.00;149727.81;5094076;28;20188;-59
2024/01/07 04:32:05;;;;;;;5.77;5.30;;;;;;;14.74;100.00;149741.75;5093709;28;20199;-59
2024/01/07 04:34:32;;;;;;;5.43;4.90;;;;;;;14.68;100.00;149726.56;5094023;28;20241;-55
2024/01/07 04:36:59;;;;;;;5.20;4.80;;;;;;;14.66;100.00;149721.47;5093853;28;20825;-59
2024/01/07 04:39:26;;;;;;;5.47;4.97;;;;;;;14.67;100.00;149725.28;5093865;28;20642;-60
2024/01/07 04:41:55;;;;;;;5.63;5.00;;;;;;;14.72;100.00;149737.97;5093700;28;20192;-59
2024/01/07 04:44:22;;;;;;;7.77;4.80;;;;;;;14.64;100.00;149717.63;5093120;28;20283;-59
2024/01/07 04:46:49;;;;;;;5.13;4.83;;;;;;;14.62;100.00;149712.59;5093642;28;20600;-59
2024/01/07 04:49:16;;;;;;;6.07;5.50;;;;;;;14.62;100.00;149712.59;5093247;28;20279;-60
2024/01/07 04:51:43;;;;;;;6.13;5.67;;;;;;;14.65;100.00;149720.19;5093678;28;20562;-60
2024/01/07 04:54:10;;;;;;;6.63;4.90;;;;;;;14.68;100.00;149727.81;5093198;28;20726;-60
2024/01/07 04:56:37;;;;;;;6.23;5.63;;;;;;;14.59;100.00;149705.00;5093204;28;20180;-60
2024/01/07 04:59:06;;;;;;;6.30;5.70;;;;;;;14.69;100.00;149729.06;5093476;28;20257;-60
2024/01/07 05:01:35;;;;;;;10.17;5.90;;;;;;;14.59;100.00;149706.28;5093417;28;20599;-59
2024/01/07 05:04:02;;;;;;;7.57;6.00;;;;;;;14.62;100.00;149712.59;5093128;28;20673;-60
2024/01/07 05:06:29;;;;;;;10.27;5.40;;;;;;;14.57;100.00;149701.16;5092972;28;20184;-58
2024/01/07 05:08:57;;;;;;;8.83;6.60;;;;;;;14.55;100.00;149696.06;5093441;28;20569;-59
2024/01/07 05:11:24;;;;;;;7.83;5.80;;;;;;;14.20;100.00;149607.31;5093344;28;20656;-59
2024/01/07 05:13:51;;;;;;;5.50;5.10;;;;;;;14.33;100.00;149639.00;5093137;28;20176;-59
2024/01/07 05:16:22;;;;;;;13.37;7.10;;;;;;;14.29;100.00;149628.88;5092994;28;20191;-60
2024/01/07 05:18:49;;;;;;;10.90;6.17;;;;;;;14.27;100.00;149625.06;5092996;28;20625;-58
2024/01/07 05:21:16;;;;;;;6.67;6.07;;;;;;;14.27;100.00;149623.78;5092679;28;20223;-59
2024/01/07 05:23:43;;;;;;;9.60;6.63;;;;;;;14.26;100.00;149622.50;5092689;28;20185;-59
2024/01/07 05:26:11;;;;;;;6.80;6.17;;;;;;;14.21;100.00;149608.59;5093261;28;20195;-59
2024/01/07 05:28:38;;;;;;;10.73;6.40;;;;;;;14.10;100.00;149583.22;5092950;28;20176;-60
2024/01/07 05:31:05;;;;;;;7.00;6.37;;;;;;;13.96;100.00;149546.50;5092939;28;20218;-60
2024/01/07 05:33:34;;;;;;;11.77;6.17;;;;;;;13.99;100.00;149555.34;5092543;28;20239;-60
2024/01/07 05:36:01;;;;;;;7.13;6.50;;;;;;;13.89;100.00;149528.72;5092762;28;20304;-59
2024/01/07 05:38:28;;;;;;;8.43;6.57;;;;;;;13.94;100.00;149542.66;5092650;28;20200;-59
2024/01/07 05:40:55;;;;;;;8.47;6.77;;;;;;;13.64;100.00;149466.63;5092465;28;20180;-60
2024/01/07 05:43:22;;;;;;;6.97;6.13;;;;;;;13.90;100.00;149532.53;5092707;28;20611;-59
2024/01/07 05:45:49;;;;;;;14.93;7.23;;;;;;;14.00;100.00;149557.84;5092242;28;20237;-60
2024/01/07 05:48:16;;;;;;;8.60;6.10;;;;;;;14.05;100.00;149570.53;5092589;28;20257;-60
2024/01/07 05:50:45;;;;;;;6.77;6.10;;;;;;;14.02;100.00;149562.94;5092413;28;20233;-59
2024/01/07 05:53:12;;;;;;;9.97;6.43;;;;;;;14.00;100.00;149557.84;5092462;28;20300;-61
2024/01/07 05:55:39;;;;;;;7.90;6.47;;;;;;;13.94;100.00;149542.66;5091642;28;20188;-59
2024/01/07 05:58:06;;;;;;;5.73;5.20;;;;;;;13.71;100.00;149485.63;5092240;28;20204;-60
2024/01/07 06:00:33;;;;;;;8.93;6.40;;;;;;;13.88;100.00;149526.16;5092194;28;20241;-60
2024/01/07 06:03:00;;;;;;;8.87;6.00;;;;;;;13.83;100.00;149514.81;5092446;28;20627;-59
2024/01/07 06:05:27;;;;;;;12.57;6.20;;;;;;;13.92;100.00;149536.34;5092406;28;20233;-59
2024/01/07 06:07:56;;;;;;;6.80;6.20;;;;;;;13.90;100.00;149532.53;5091994;28;20176;-59
2024/01/07 06:10:23;;;;;;;10.13;6.10;;;;;;;13.93;100.00;149540.13;5092337;28;20191;-60
2024/01/07 06:12:50;;;;;;;6.73;6.10;;;;;;;13.86;100.00;149522.41;5092610;28;20188;-59
2024/01/07 06:15:17;;;;;;;7.47;5.53;;;;;;;13.91;100.00;149533.81;5091905;28;20206;-59
2024/01/07 06:17:46;;;;;;;7.20;6.33;;;;;;;13.84;100.00;149517.31;5092137;28;20256;-60
2024/01/07 06:20:13;;;;;;;6.63;5.60;;;;;;;13.84;100.00;149517.31;5091905;28;20188;-59
2024/01/07 06:22:40;;;;;;;7.13;5.53;;;;;;;13.86;100.00;149522.41;5092084;28;20200;-59
2024/01/07 06:25:10;;;;;;;6.33;5.80;;;;;;;13.82;100.00;149512.25;5091602;28;20188;-60
2024/01/07 06:27:37;;;;;;;6.63;5.87;;;;;;;14.02;100.00;149561.66;5092393;28;20179;-58
2024/01/07 06:30:05;;;;;;;5.83;5.10;;;;;;;13.93;100.00;149540.13;5091745;28;20188;-61
2024/01/07 06:32:32;;;;;;;11.53;5.87;;;;;;;13.82;100.00;149512.25;5092088;28;20249;-60
2024/01/07 06:34:59;;;;;;;5.37;4.80;;;;;;;13.90;100.00;149532.53;5091637;28;20188;-61
2024/01/07 06:37:29;;;;;;;6.17;5.30;;;;;;;13.88;100.00;149526.16;5091644;28;20249;-60
2024/01/07 06:39:56;;;;;;;10.80;6.30;;;;;;;13.93;100.00;149538.84;5091688;28;20279;-59
2024/01/07 06:42:24;;;;;;;5.50;5.10;;;;;;;13.90;100.00;149532.53;5091916;28;20531;-60
2024/01/07 06:44:52;;;;;;;6.47;6.00;;;;;;;13.92;100.00;149536.34;5091842;28;20585;-59
2024/01/07 06:47:19;;;;;;;6.83;5.60;;;;;;;13.94;100.00;149542.66;5091623;28;20275;-58
2024/01/07 06:49:46;;;;;;;6.43;5.73;;;;;;;13.82;100.00;149512.25;5091843;28;20249;-59
2024/01/07 06:52:13;;;;;;;6.23;5.83;;;;;;;13.71;100.00;149485.63;5091533;28;20269;-58
2024/01/07 06:54:40;;;;;;;6.33;5.83;;;;;;;13.89;100.00;149529.97;5091407;28;20228;-60
2024/01/07 06:57:07;;;;;;;10.27;5.80;;;;;;;13.90;100.00;149532.53;5092383;28;20555;-59
2024/01/07 06:59:36;;;;;;;6.60;6.00;;;;;;;13.92;100.00;149537.56;5091267;28;20207;-60
2024/01/07 07:02:03;;;;;;;6.43;5.63;;;;;;;13.80;100.00;149505.88;5091475;28;20188;-59
2024/01/07 07:04:30;;;;;;;6.90;5.20;;;;;;;13.92;100.00;149537.56;5091630;28;20185;-60
2024/01/07 07:06:58;;;;;;;5.30;4.80;;;;;;;13.90;100.00;149532.53;5091355;28;20193;-58
2024/01/07 07:09:25;;;;;;;7.80;4.80;;;;;;;13.79;100.00;149504.63;5095988;28;20179;-59
2024/01/07 07:11:53;;;;;;;4.87;4.53;;;;;;;13.99;100.00;149555.34;5095263;28;20207;-59
2024/01/07 07:14:20;;;;;;;4.97;4.30;;;;;;;14.00;100.00;149557.84;5095062;28;20192;-58
2024/01/07 07:16:49;;;;;;;4.67;4.20;;;;;;;13.96;100.00;149547.72;5095099;28;20184;-59
2024/01/07 07:19:16;;;;;;;4.53;4.20;;;;;;;14.06;100.00;149571.81;5095296;28;20738;-60
2024/01/07 07:21:44;;;;;;;5.43;4.80;;;;;;;13.96;100.00;149547.72;5095340;28;20622;-59
2024/01/07 07:24:11;;;;;;;6.30;4.93;;;;;;;13.93;100.00;149540.13;5094927;28;20192;-60
2024/01/07 07:26:40;;;;;;;5.50;5.10;;;;;;;13.94;100.00;149542.66;5095149;28;20287;-59
2024/01/07 07:29:09;;;;;;;10.77;5.67;;;;;;;13.99;100.00;149555.34;5095106;28;20183;-58
2024/01/07 07:31:37;;;;;;;7.17;5.90;;;;;;;13.99;100.00;149554.06;5094806;28;20192;-59
2024/01/07 07:34:06;;;;;;;5.93;4.70;;;;;;;14.00;100.00;149556.63;5095055;28;20557;-61
2024/01/07 07:36:33;;;;;;;6.07;5.30;;;;;;;14.10;100.00;149583.22;5095267;28;20600;-59
2024/01/07 07:39:00;;;;;;;6.43;5.23;;;;;;;14.11;100.00;149584.50;5094641;28;20204;-59
2024/01/07 07:41:28;;;;;;;4.57;4.17;;;;;;;14.11;100.00;149585.78;5094618;28;20249;-59
2024/01/07 07:43:55;;;;;;;6.93;4.30;;;;;;;14.26;100.00;149622.50;5094555;28;20184;-59
2024/01/07 07:46:22;;;;;;;7.40;4.13;;;;;;;14.29;100.00;149628.88;5094786;28;20180;-59
2024/01/07 07:48:49;;;;;;;7.50;4.03;;;;;;;14.32;100.00;149636.47;5094576;28;20191;-60
2024/01/07 07:51:18;;;;;;;10.67;3.27;;;;;;;14.27;100.00;149623.78;5095193;28;20209;-58
2024/01/07 07:53:45;;;;;;;2.23;2.03;;;;;;;14.31;100.00;149635.19;5094592;28;20265;-59
2024/01/07 07:56:13;;;;;;;4.37;1.60;;;;;;;14.41;100.00;149659.34;5094648;28;20181;-60
2024/01/07 07:58:40;;;;;;;1.00;0.90;;;;;;;14.50;100.00;149682.16;5094218;28;20199;-58
2024/01/07 08:01:07;;;;;;;3.20;2.00;;;;;;;14.56;100.00;149697.34;5094191;28;20225;-59
2024/01/07 08:03:34;;;;;;;3.37;1.60;;;;;;;14.59;100.00;149706.28;5094723;28;20554;-59
2024/01/07 08:06:01;;;;;;;3.00;1.80;;;;;;;14.61;100.00;149710.03;5094391;28;20729;-60
2024/01/07 08:08:30;;;;;;;5.93;1.53;;;;;;;14.63;100.00;149715.13;5095270;28;20242;-59
2024/01/07 08:10:57;;;;;;;1.20;1.10;;;;;;;14.50;100.00;149683.44;5094097;28;20192;-60
2024/01/07 08:13:24;;;;;;;2.70;1.10;;;;;;;14.62;100.00;149712.59;5094072;28;20187;-58
2024/01/07 08:15:51;;;;;;;4.90;1.50;;;;;;;14.74;100.00;149743.00;5094309;28;20257;-60
2024/01/07 08:18:18;;;;;;;2.70;1.50;;;;;;;14.74;100.00;149743.00;5094117;28;20628;-59
2024/01/07 08:20:45;;;;;;;2.63;1.00;;;;;;;14.77;100.00;149750.63;5093485;28;20282;-59
2024/01/07 08:23:12;;;;;;;1.80;1.17;;;;;;;14.68;100.00;149726.56;5093764;28;20188;-60
2024/01/07 08:25:41;;;;;;;2.30;1.20;;;;;;;14.89;100.00;149781.09;5093657;28;20207;-60
2024/01/07 08:28:09;;;;;;;2.00;1.33;;;;;;;14.83;100.00;149765.84;5094027;28;20188;-60
2024/01/07 08:30:36;;;;;;;1.73;1.13;;;;;;;14.82;100.00;149763.31;5093763;28;20184;-59
2024/01/07 08:33:03;;;;;;;3.07;1.47;;;;;;;14.88;100.00;149778.53;5093715;28;20217;-58
2024/01/07 08:35:30;;;;;;;3.10;1.80;;;;;;;14.92;100.00;149787.41;5093831;28;20261;-59
2024/01/07 08:37:58;;;;;;;2.73;0.97;;;;;;;14.96;100.00;149798.84;5093547;28;20234;-59
2024/01/07 08:40:25;;;;;;;2.10;1.10;;;;;;;14.91;100.00;149786.13;5093720;28;20265;-60
2024/01/07 08:42:53;;;;;;;1.17;0.70;;;;;;;14.63;100.00;149715.13;5093450;28;20188;-58
2024/01/07 08:45:20;;;;;;;1.80;1.03;;;;;;;14.25;100.00;149620.00;5093373;28;20245;-59
2024/01/07 08:47:48;;;;;;;4.90;1.37;;;;;;;14.16;100.00;149598.44;5093704;28;20696;-59
2024/01/07 08:50:15;;;;;;;1.43;1.00;;;;;;;14.27;100.00;149623.78;5093533;28;20635;-58
2024/01/07 08:52:42;;;;;;;6.07;1.27;;;;;;;14.23;100.00;149613.63;5093240;28;20187;-59
2024/01/07 08:55:10;;;;;;;1.77;0.90;;;;;;;14.16;100.00;149598.44;5093250;28;20296;-59
2024/01/07 08:57:38;;;;;;;7.70;1.30;;;;;;;14.11;100.00;149584.50;5093215;28;20195;-59
2024/01/07 09:00:08;;;;;;;4.43;1.23;;;;;;;14.42;100.00;149663.16;5093436;28;20665;-59
2024/01/07 09:02:36;;;;;;;0.93;0.73;;;;;;;14.63;100.00;149715.13;5093211;28;20230;-59
2024/01/07 09:05:03;;;;;;;2.70;0.93;;;;;;;15.13;100.00;149840.69;5093004;28;20192;-58
2024/01/07 09:07:30;;;;;;;2.07;1.10;;;;;;;15.16;100.00;149847.00;5092912;28;20184;-60
2024/01/07 09:09:59;;;;;;;2.23;1.20;;;;;;;15.06;100.00;149824.19;5092895;28;20180;-59
2024/01/07 09:12:26;;;;;;;2.93;1.10;;;;;;;14.91;100.00;149786.13;5093126;28;20188;-60
2024/01/07 09:14:53;;;;;;;6.87;1.20;;;;;;;14.62;100.00;149713.88;5092757;28;20184;-59
2024/01/07 09:17:22;;;;;;;1.60;1.03;;;;;;;14.48;100.00;149677.06;5092697;28;20236;-59
2024/01/07 09:19:49;;;;;;;3.13;1.53;;;;;;;14.31;100.00;149633.91;5092995;28;20204;-59
2024/01/07 09:22:16;;;;;;;1.10;1.00;;;;;;;14.13;100.00;149589.59;5092915;28;20257;-59
2024/01/07 09:24:43;;;;;;;6.50;1.50;;;;;;;13.97;100.00;149550.25;5092659;28;20237;-60
2024/01/07 09:27:10;;;;;;;5.90;1.97;;;;;;;13.78;100.00;149502.13;5093124;28;20736;-59
2024/01/07 09:29:41;;;;;;;6.17;1.90;;;;;;;13.92;100.00;149537.56;5092597;28;20192;-60
2024/01/07 09:32:09;;;;;;;14.13;2.07;;;;;;;13.98;100.00;149551.53;5092816;28;20607;-61
2024/01/07 09:34:37;;;;;;;4.43;2.00;;;;;;;13.79;100.00;149504.63;5092799;28;20634;-59
2024/01/07 09:37:04;;;;;;;12.47;2.27;;;;;;;13.77;100.00;149499.56;5092750;28;20188;-60
2024/01/07 09:39:31;;;;;;;7.37;3.00;;;;;;;13.70;100.00;149481.84;5092385;28;20204;-59
2024/01/07 09:41:59;;;;;;;10.27;2.40;;;;;;;13.54;100.00;149441.28;5092303;28;20184;-59
2024/01/07 09:44:27;;;;;;;18.00;3.10;;;;;;;13.30;100.00;149380.47;5092117;28;20578;-59
2024/01/07 09:46:56;;;;;;;12.83;2.70;;;;;;;13.16;100.00;149347.53;5092221;28;20184;-60
2024/01/07 09:49:24;;;;;;;14.93;2.77;;;;;;;12.78;100.00;149252.50;5092304;28;20238;-59
2024/01/07 09:51:58;;;;;;;11.63;3.37;;;;;;;12.68;100.00;149227.22;5092469;28;20578;-59
2024/01/07 09:54:25;;;;;;;10.33;3.03;;;;;;;12.51;100.00;149182.88;5092106;28;20629;-59
2024/01/07 09:57:01;;;;;;;15.80;2.80;;;;;;;12.68;100.00;149225.94;5092130;28;20184;-60
2024/01/07 09:59:29;;;;;;;11.60;2.83;;;;;;;12.69;100.00;149228.44;5092332;28;20203;-58
2024/01/07 10:01:57;;;;;;;11.80;2.67;;;;;;;12.63;100.00;149213.25;5092558;28;20627;-59
2024/01/07 10:04:24;;;;;;;10.93;3.37;;;;;;;12.57;100.00;149198.06;5092596;28;20184;-60
2024/01/07 10:06:54;;;;;;;13.97;3.07;;;;;;;12.54;100.00;149190.47;5092093;28;20188;-59
2024/01/07 10:09:23;;;;;;;17.47;3.83;;;;;;;12.71;100.00;149233.53;5092230;28;20666;-60
2024/01/07 10:11:50;;;;;;;17.37;3.60;;;;;;;12.78;100.00;149251.22;5091980;28;20196;-59
2024/01/07 10:14:17;;;;;;;15.50;3.90;;;;;;;12.72;100.00;149236.06;5092053;28;20227;-59
2024/01/07 10:16:45;;;;;;;18.13;3.43;;;;;;;13.08;100.00;149325.94;5092500;28;20585;-60
2024/01/07 10:19:13;;;;;;;14.67;4.30;;;;;;;13.34;100.00;149391.88;5092123;28;20701;-59
2024/01/07 10:21:40;;;;;;;14.77;3.40;;;;;;;13.56;100.00;149446.34;5091773;28;20180;-60
2024/01/07 10:24:12;;;;;;;14.17;3.87;;;;;;;13.58;100.00;149451.41;5092138;28;20253;-60
2024/01/07 10:26:40;;;;;;;14.10;3.33;;;;;;;13.48;100.00;149426.09;5092110;28;20241;-60
2024/01/07 10:29:08;;;;;;;17.70;4.17;;;;;;;13.51;100.00;149433.69;5092089;28;20569;-59
2024/01/07 10:31:35;;;;;;;11.93;3.77;;;;;;;13.39;100.00;149403.28;5091760;28;20215;-59
2024/01/07 10:34:03;;;;;;;17.77;4.07;;;;;;;13.37;100.00;149398.19;5091806;28;20238;-61
2024/01/07 10:36:31;;;;;;;11.13;3.70;;;;;;;13.41;100.00;149408.38;5091640;28;20188;-60
2024/01/07 10:38:58;;;;;;;16.63;4.60;;;;;;;13.58;100.00;149451.41;5091875;28;20225;-59
2024/01/07 10:41:29;;;;;;;12.60;3.40;;;;;;;13.86;100.00;149521.13;5091962;28;20210;-60
2024/01/07 10:43:57;;;;;;;18.13;3.87;;;;;;;14.18;100.00;149603.50;5095124;28;20184;-60
2024/01/07 10:46:26;;;;;;;16.50;4.03;;;;;;;14.39;100.00;149654.25;5095699;28;20196;-58
2024/01/07 10:49:00;;;;;;;6.67;3.03;;;;;;;14.79;100.00;149755.72;5096096;28;20716;-59
2024/01/07 10:51:30;;;;;;;22.27;4.50;;;;;;;15.56;100.00;149948.59;5096165;28;20646;-59
2024/01/07 10:53:57;;;;;;;11.30;3.07;;;;;;;16.72;100.00;150240.59;5095994;28;20253;-60
2024/01/07 10:56:25;;;;;;;20.67;4.17;;;;;;;17.38;100.00;150404.50;5095875;28;20184;-59
2024/01/07 10:58:56;;;;;;;15.87;3.77;;;;;;;17.86;100.00;150526.56;5095452;28;20184;-60
2024/01/07 11:01:23;;;;;;;18.13;4.23;;;;;;;18.39;100.00;150660.03;5095650;28;20184;-60
2024/01/07 11:03:58;;;;;;;16.85;3.85;;;;;;;19.38;100.00;150908.16;5095756;28;20608;-59
2024/01/07 11:06:32;;;;;;;15.85;4.45;;;;;;;19.22;100.00;150867.44;5095519;28;20189;-59
2024/01/07 11:09:04;;;;;;;21.98;5.07;;;;;;;19.43;100.00;150922.22;5095459;28;20187;-60
2024/01/07 11:11:41;;;;;;;14.68;5.10;;;;;;;19.87;100.00;151031.63;5095266;28;20646;-60
2024/01/07 11:14:35;;;;;;;20.55;6.00;;;;;;;19.66;100.00;150978.16;5095341;28;20187;-59
2024/01/07 11:17:03;;;;;;;15.10;4.72;;;;;;;19.77;100.00;151006.19;5095594;28;20188;-59